createdAt,value
2019-03-06T00:01:07.168Z,3.83
2019-03-06T00:03:33.846Z,3.83
2019-03-06T00:06:00.674Z,3.86
2019-03-06T00:08:27.341Z,3.81
2019-03-06T00:10:54.028Z,3.74
2019-03-06T00:13:20.952Z,3.66
2019-03-06T00:15:48.014Z,3.58
2019-03-06T00:18:14.757Z,3.46
2019-03-06T00:20:41.515Z,3.37
2019-03-06T00:23:08.239Z,3.27
2019-03-06T00:25:34.929Z,3.19
2019-03-06T00:28:01.607Z,3.14
2019-03-06T00:30:28.449Z,3.02
2019-03-06T00:32:55.100Z,2.93
2019-03-06T00:35:24.987Z,2.85
2019-03-06T00:37:51.809Z,2.81
2019-03-06T00:40:26.423Z,2.76
2019-03-06T00:42:53.267Z,2.73
2019-03-06T00:45:19.812Z,2.75
2019-03-06T00:47:46.479Z,2.77
2019-03-06T00:50:13.333Z,2.80
2019-03-06T00:52:40.004Z,2.84
2019-03-06T00:55:06.820Z,2.88
2019-03-06T00:57:33.650Z,2.92
2019-03-06T01:00:00.398Z,2.96
2019-03-06T01:02:27.129Z,3.01
2019-03-06T01:04:53.920Z,3.04
2019-03-06T01:07:20.940Z,3.11
2019-03-06T01:09:47.501Z,3.13
2019-03-06T01:12:14.280Z,3.17
2019-03-06T01:14:40.966Z,3.20
2019-03-06T01:17:07.620Z,3.22
2019-03-06T01:19:34.452Z,3.25
2019-03-06T01:22:01.103Z,3.29
2019-03-06T01:24:27.867Z,3.29
2019-03-06T01:26:54.571Z,3.32
2019-03-06T01:29:21.222Z,3.32
2019-03-06T01:31:47.999Z,3.32
2019-03-06T01:34:39.730Z,3.31
2019-03-06T01:37:21.318Z,3.31
2019-03-06T01:40:06.265Z,3.27
2019-03-06T01:42:38.380Z,3.23
2019-03-06T01:45:07.753Z,3.14
2019-03-06T01:47:34.434Z,3.04
2019-03-06T01:50:01.090Z,2.96
2019-03-06T01:52:27.928Z,2.88
2019-03-06T01:54:54.669Z,2.86
2019-03-06T01:57:21.435Z,2.82
2019-03-06T01:59:48.101Z,2.82
2019-03-06T02:02:14.871Z,2.82
2019-03-06T02:04:41.556Z,2.81
2019-03-06T02:07:08.582Z,2.83
2019-03-06T02:09:35.117Z,2.82
2019-03-06T02:12:01.753Z,2.81
2019-03-06T02:14:28.302Z,2.77
2019-03-06T02:16:54.830Z,2.77
2019-03-06T02:19:21.458Z,2.72
2019-03-06T02:21:47.979Z,2.71
2019-03-06T02:24:14.610Z,2.76
2019-03-06T02:26:41.368Z,2.81
2019-03-06T02:29:08.038Z,2.83
2019-03-06T02:31:34.678Z,2.86
2019-03-06T02:34:01.342Z,2.89
2019-03-06T02:36:27.994Z,2.95
2019-03-06T02:38:54.651Z,2.95
2019-03-06T02:41:21.286Z,2.97
2019-03-06T02:43:47.811Z,2.99
2019-03-06T02:46:14.345Z,3.04
2019-03-06T02:48:40.873Z,3.05
2019-03-06T02:51:09.079Z,3.09
2019-03-06T02:53:36.058Z,3.14
2019-03-06T02:56:02.789Z,3.15
2019-03-06T02:58:51.618Z,3.15
2019-03-06T03:01:37.565Z,3.17
2019-03-06T03:04:17.682Z,3.19
2019-03-06T03:06:47.912Z,3.22
2019-03-06T03:09:16.207Z,3.24
2019-03-06T03:11:42.863Z,3.28
2019-03-06T03:14:09.494Z,3.28
2019-03-06T03:16:36.011Z,3.29
2019-03-06T03:19:02.539Z,3.30
2019-03-06T03:21:29.219Z,3.31
2019-03-06T03:23:55.836Z,3.35
2019-03-06T03:26:22.414Z,3.35
2019-03-06T03:28:49.251Z,3.38
2019-03-06T03:31:15.968Z,3.41
2019-03-06T03:33:42.521Z,3.41
2019-03-06T03:36:09.055Z,3.40
2019-03-06T03:38:35.687Z,3.40
2019-03-06T03:41:02.342Z,3.40
2019-03-06T03:43:28.872Z,3.39
2019-03-06T03:45:55.511Z,3.36
2019-03-06T03:48:22.129Z,3.34
2019-03-06T03:50:48.752Z,3.37
2019-03-06T03:53:15.338Z,3.43
2019-03-06T03:55:41.851Z,3.44
2019-03-06T03:58:08.568Z,3.45
2019-03-06T04:00:35.526Z,3.46
2019-03-06T04:03:02.149Z,3.45
2019-03-06T04:05:28.779Z,3.44
2019-03-06T04:07:55.407Z,3.49
2019-03-06T04:10:22.161Z,3.50
2019-03-06T04:12:48.823Z,3.48
2019-03-06T04:15:15.843Z,3.48
2019-03-06T04:17:42.431Z,3.44
2019-03-06T04:20:09.984Z,3.43
2019-03-06T04:22:36.514Z,3.47
2019-03-06T04:25:03.561Z,3.53
2019-03-06T04:27:30.157Z,3.61
2019-03-06T04:29:56.778Z,3.66
2019-03-06T04:32:23.532Z,3.72
2019-03-06T04:34:50.065Z,3.78
2019-03-06T04:37:16.701Z,3.84
2019-03-06T04:39:43.318Z,3.89
2019-03-06T04:42:10.241Z,3.91
2019-03-06T04:44:36.748Z,3.95
2019-03-06T04:47:03.494Z,3.98
2019-03-06T04:49:30.025Z,4.00
2019-03-06T04:51:56.550Z,4.03
2019-03-06T04:54:23.075Z,4.04
2019-03-06T04:56:49.609Z,4.07
2019-03-06T04:59:16.236Z,4.11
2019-03-06T05:01:43.068Z,4.10
2019-03-06T05:04:09.801Z,4.13
2019-03-06T05:06:36.319Z,4.14
2019-03-06T05:09:05.105Z,4.14
2019-03-06T05:11:31.780Z,4.13
2019-03-06T05:13:58.340Z,4.15
2019-03-06T05:17:03.246Z,4.17
2019-03-06T05:19:29.798Z,4.19
2019-03-06T05:21:56.570Z,4.17
2019-03-06T05:24:23.211Z,4.17
2019-03-06T05:26:49.847Z,4.18
2019-03-06T05:29:16.465Z,4.19
2019-03-06T05:32:25.660Z,4.20
2019-03-06T05:34:52.290Z,4.22
2019-03-06T05:37:43.920Z,4.23
2019-03-06T05:40:10.606Z,4.25
2019-03-06T05:42:37.129Z,4.26
2019-03-06T05:45:04.048Z,4.28
2019-03-06T05:47:30.563Z,4.29
2019-03-06T05:49:57.092Z,4.30
2019-03-06T05:52:23.754Z,4.31
2019-03-06T05:54:50.267Z,4.34
2019-03-06T05:57:16.790Z,4.34
2019-03-06T05:59:43.323Z,4.34
2019-03-06T06:02:09.964Z,4.35
2019-03-06T06:04:36.585Z,4.36
2019-03-06T06:07:03.292Z,4.35
2019-03-06T06:09:29.910Z,4.36
2019-03-06T06:11:56.585Z,4.42
2019-03-06T06:14:23.103Z,4.39
2019-03-06T06:16:49.764Z,4.37
2019-03-06T06:19:16.281Z,4.35
2019-03-06T06:22:07.219Z,4.35
2019-03-06T06:24:33.832Z,4.36
2019-03-06T06:27:00.359Z,4.33
2019-03-06T06:29:26.931Z,4.35
2019-03-06T06:31:53.554Z,4.31
2019-03-06T06:34:20.120Z,4.27
2019-03-06T06:36:46.713Z,4.23
2019-03-06T06:39:13.246Z,4.23
2019-03-06T06:41:39.883Z,4.19
2019-03-06T06:44:06.496Z,4.21
2019-03-06T06:46:33.333Z,4.24
2019-03-06T06:48:59.844Z,4.25
2019-03-06T06:52:07.111Z,4.26
2019-03-06T06:55:05.436Z,4.33
2019-03-06T06:57:51.099Z,4.36
2019-03-06T07:01:16.925Z,4.52
2019-03-06T07:05:09.298Z,4.54
2019-03-06T07:07:54.023Z,4.60
2019-03-06T07:10:39.064Z,4.66
2019-03-06T07:13:19.732Z,4.59
2019-03-06T07:15:56.344Z,4.62
2019-03-06T07:18:40.953Z,4.62
2019-03-06T07:21:12.084Z,4.60
2019-03-06T07:23:58.376Z,4.65
2019-03-06T07:26:38.142Z,4.67
2019-03-06T07:29:28.250Z,4.77
2019-03-06T07:32:20.304Z,4.80
2019-03-06T07:35:42.155Z,4.87
2019-03-06T07:38:08.845Z,4.98
2019-03-06T07:40:55.244Z,4.96
2019-03-06T07:43:36.152Z,5.01
2019-03-06T07:46:34.401Z,5.06
2019-03-06T07:49:20.932Z,5.13
2019-03-06T07:51:55.734Z,5.09
2019-03-06T07:54:36.030Z,5.14
2019-03-06T07:57:37.561Z,5.17
2019-03-06T08:00:17.403Z,5.22
2019-03-06T08:03:18.992Z,5.49
2019-03-06T08:05:45.655Z,5.67
2019-03-06T08:08:12.179Z,5.82
2019-03-06T08:10:39.843Z,5.97
2019-03-06T08:13:30.081Z,6.05
2019-03-06T08:16:10.252Z,6.20
2019-03-06T08:18:59.150Z,6.24
2019-03-06T08:21:43.392Z,6.01
2019-03-06T08:24:27.983Z,5.91
2019-03-06T08:26:55.042Z,5.90
2019-03-06T08:29:21.567Z,5.94
2019-03-06T08:31:51.562Z,5.96
2019-03-06T08:34:18.080Z,5.85
2019-03-06T08:36:46.060Z,5.88
2019-03-06T08:39:20.596Z,5.83
2019-03-06T08:41:47.630Z,5.87
2019-03-06T08:44:14.433Z,5.90
2019-03-06T08:46:59.587Z,5.78
2019-03-06T08:49:50.103Z,5.69
2019-03-06T08:52:39.101Z,5.75
2019-03-06T08:55:26.700Z,5.77
2019-03-06T08:58:15.993Z,5.86
2019-03-06T09:01:09.083Z,5.92
2019-03-06T09:03:54.256Z,5.94
2019-03-06T09:06:40.624Z,5.83
2019-03-06T09:09:36.471Z,6.01
2019-03-06T09:12:18.554Z,5.98
2019-03-06T09:15:03.498Z,6.12
2019-03-06T09:17:56.043Z,6.22
2019-03-06T09:20:41.029Z,6.19
2019-03-06T09:23:29.803Z,6.10
2019-03-06T09:26:20.481Z,6.19
2019-03-06T09:29:01.331Z,6.40
2019-03-06T09:31:46.648Z,6.34
2019-03-06T09:34:35.277Z,6.42
2019-03-06T09:37:08.028Z,6.70
2019-03-06T09:39:54.386Z,6.71
2019-03-06T09:42:43.087Z,6.84
2019-03-06T09:45:29.366Z,7.07
2019-03-06T09:48:06.101Z,7.33
2019-03-06T09:50:55.081Z,7.47
2019-03-06T09:53:37.908Z,7.64
2019-03-06T09:56:33.215Z,7.72
2019-03-06T09:59:05.775Z,7.66
2019-03-06T10:01:52.077Z,7.63
2019-03-06T10:04:38.296Z,8.08
2019-03-06T10:07:25.141Z,8.58
2019-03-06T10:10:09.357Z,9.18
2019-03-06T10:12:47.586Z,9.43
2019-03-06T10:15:46.542Z,9.66
2019-03-06T10:18:20.800Z,10.58
2019-03-06T10:20:47.592Z,10.69
2019-03-06T10:23:14.630Z,11.86
2019-03-06T10:25:41.393Z,12.47
2019-03-06T10:28:08.919Z,13.42
2019-03-06T10:30:35.566Z,15.06
2019-03-06T10:33:02.218Z,16.48
2019-03-06T10:35:28.942Z,17.33
2019-03-06T10:37:55.906Z,18.10
2019-03-06T10:40:22.544Z,18.60
2019-03-06T10:42:49.444Z,17.44
2019-03-06T10:45:16.827Z,16.61
2019-03-06T10:47:43.821Z,16.87
2019-03-06T10:50:12.761Z,17.25
2019-03-06T10:52:39.392Z,17.53
2019-03-06T10:55:07.378Z,18.27
2019-03-06T10:57:34.084Z,18.77
2019-03-06T11:00:00.637Z,19.30
2019-03-06T11:02:27.554Z,20.48
2019-03-06T11:05:01.157Z,22.18
2019-03-06T11:07:27.801Z,22.58
2019-03-06T11:09:54.459Z,23.30
2019-03-06T11:12:22.299Z,23.41
2019-03-06T11:14:50.017Z,23.12
2019-03-06T11:17:19.376Z,22.43
2019-03-06T11:19:46.453Z,21.81
2019-03-06T11:22:13.202Z,21.47
2019-03-06T11:24:40.058Z,21.14
2019-03-06T11:27:07.133Z,21.28
2019-03-06T11:29:33.886Z,21.59
2019-03-06T11:32:00.506Z,20.51
2019-03-06T11:34:27.163Z,20.53
2019-03-06T11:36:54.005Z,20.29
2019-03-06T11:39:20.958Z,20.41
2019-03-06T11:41:47.615Z,20.65
2019-03-06T11:44:14.295Z,20.40
2019-03-06T11:46:41.090Z,20.63
2019-03-06T11:49:07.872Z,21.42
2019-03-06T11:51:34.534Z,21.23
2019-03-06T11:54:01.188Z,20.49
2019-03-06T11:56:28.034Z,20.18
2019-03-06T11:58:54.961Z,19.75
2019-03-06T12:01:25.313Z,20.41
2019-03-06T12:03:52.329Z,20.62
2019-03-06T12:06:18.972Z,21.53
2019-03-06T12:08:46.166Z,21.90
2019-03-06T12:11:12.830Z,20.77
2019-03-06T12:13:39.662Z,20.33
2019-03-06T12:16:07.633Z,20.39
2019-03-06T12:18:36.834Z,19.68
2019-03-06T12:21:03.740Z,19.37
2019-03-06T12:23:30.458Z,18.83
2019-03-06T12:25:57.322Z,17.78
2019-03-06T12:28:23.954Z,17.37
2019-03-06T12:30:50.873Z,17.33
2019-03-06T12:33:20.314Z,16.76
2019-03-06T12:35:47.142Z,16.34
2019-03-06T12:38:13.791Z,16.13
2019-03-06T12:40:40.341Z,15.98
2019-03-06T12:43:07.074Z,16.01
2019-03-06T12:45:33.900Z,15.95
2019-03-06T12:48:01.004Z,15.89
2019-03-06T12:50:28.543Z,15.67
2019-03-06T12:52:55.243Z,15.93
2019-03-06T12:55:21.988Z,15.75
2019-03-06T12:57:48.729Z,15.92
2019-03-06T13:00:19.505Z,15.81
2019-03-06T13:02:46.396Z,15.90
2019-03-06T13:05:13.129Z,15.48
2019-03-06T13:07:40.157Z,15.40
2019-03-06T13:10:08.049Z,15.57
2019-03-06T13:12:34.775Z,15.27
2019-03-06T13:15:01.443Z,15.13
2019-03-06T13:17:29.698Z,15.16
2019-03-06T13:19:56.404Z,15.17
2019-03-06T13:22:23.452Z,15.17
2019-03-06T13:24:50.068Z,15.05
2019-03-06T13:27:16.686Z,15.10
2019-03-06T13:29:43.219Z,15.13
2019-03-06T13:32:12.007Z,14.93
2019-03-06T13:34:50.394Z,14.60
2019-03-06T13:37:10.968Z,14.70
2019-03-06T13:39:37.509Z,14.57
2019-03-06T13:42:04.404Z,14.70
2019-03-06T13:44:30.957Z,14.45
2019-03-06T13:46:57.764Z,14.77
2019-03-06T13:49:24.434Z,14.72
2019-03-06T13:51:51.153Z,14.74
2019-03-06T13:54:17.798Z,14.89
2019-03-06T13:56:44.828Z,14.78
2019-03-06T13:59:11.472Z,14.59
2019-03-06T14:01:38.201Z,14.63
2019-03-06T14:04:05.014Z,14.66
2019-03-06T14:06:31.652Z,14.68
2019-03-06T14:08:58.357Z,14.59
2019-03-06T14:11:24.892Z,14.36
2019-03-06T14:13:51.535Z,14.34
2019-03-06T14:16:18.351Z,14.35
2019-03-06T14:18:46.101Z,14.33
2019-03-06T14:21:12.756Z,14.09
2019-03-06T14:23:39.398Z,14.19
2019-03-06T14:26:06.770Z,14.08
2019-03-06T14:28:33.557Z,14.10
2019-03-06T14:31:00.072Z,13.93
2019-03-06T14:33:27.109Z,13.85
2019-03-06T14:35:53.796Z,13.65
2019-03-06T14:38:20.717Z,13.57
2019-03-06T14:40:48.442Z,13.56
2019-03-06T14:43:15.100Z,13.49
2019-03-06T14:45:41.924Z,13.53
2019-03-06T14:48:08.593Z,13.34
2019-03-06T14:50:35.114Z,13.38
2019-03-06T14:53:01.851Z,13.39
2019-03-06T14:55:28.518Z,13.42
2019-03-06T14:57:55.228Z,13.47
2019-03-06T15:00:22.076Z,13.47
2019-03-06T15:02:48.855Z,13.42
2019-03-06T15:05:16.087Z,13.28
2019-03-06T15:07:42.856Z,13.31
2019-03-06T15:10:11.338Z,13.39
2019-03-06T15:12:37.991Z,13.42
2019-03-06T15:15:05.211Z,13.45
2019-03-06T15:17:31.853Z,13.39
2019-03-06T15:19:58.375Z,13.40
2019-03-06T15:22:24.968Z,13.48
2019-03-06T15:24:51.624Z,13.50
2019-03-06T15:27:18.482Z,13.62
2019-03-06T15:29:45.201Z,13.72
2019-03-06T15:32:12.184Z,13.78
2019-03-06T15:34:38.761Z,13.78
2019-03-06T15:37:05.508Z,13.73
2019-03-06T15:39:42.202Z,13.77
2019-03-06T15:42:03.985Z,13.76
2019-03-06T15:44:31.054Z,13.58
2019-03-06T15:46:57.693Z,13.48
2019-03-06T15:49:24.435Z,13.40
2019-03-06T15:51:51.252Z,13.25
2019-03-06T15:54:17.880Z,13.23
2019-03-06T15:56:44.420Z,13.13
2019-03-06T15:59:15.013Z,13.01
2019-03-06T16:01:39.668Z,12.91
2019-03-06T16:04:06.423Z,12.84
2019-03-06T16:06:33.086Z,12.78
2019-03-06T16:08:59.778Z,12.67
2019-03-06T16:11:26.520Z,12.58
2019-03-06T16:13:53.400Z,12.52
2019-03-06T16:16:20.439Z,12.42
2019-03-06T16:18:47.377Z,12.31
2019-03-06T16:21:14.064Z,12.20
2019-03-06T16:23:40.633Z,12.10
2019-03-06T16:26:09.956Z,12.00
2019-03-06T16:28:36.983Z,11.91
2019-03-06T16:31:03.786Z,11.77
2019-03-06T16:33:30.674Z,11.69
2019-03-06T16:35:57.661Z,11.61
2019-03-06T16:38:24.363Z,11.51
2019-03-06T16:40:50.918Z,11.42
2019-03-06T16:43:17.554Z,11.34
2019-03-06T16:45:44.290Z,11.24
2019-03-06T16:48:10.949Z,11.16
2019-03-06T16:50:37.933Z,11.07
2019-03-06T16:53:04.836Z,10.98
2019-03-06T16:55:31.526Z,10.91
2019-03-06T16:57:58.640Z,10.75
2019-03-06T17:00:27.603Z,10.70
2019-03-06T17:02:55.129Z,10.66
2019-03-06T17:05:22.165Z,10.63
2019-03-06T17:07:49.499Z,10.57
2019-03-06T17:10:16.645Z,10.53
2019-03-06T17:12:43.308Z,10.45
2019-03-06T17:15:11.669Z,10.39
2019-03-06T17:17:38.304Z,10.33
2019-03-06T17:20:05.350Z,10.32
2019-03-06T17:22:31.989Z,10.31
2019-03-06T17:24:58.668Z,10.34
2019-03-06T17:27:25.315Z,10.28
2019-03-06T17:29:51.930Z,10.24
2019-03-06T17:32:18.613Z,10.22
2019-03-06T17:34:45.238Z,10.20
2019-03-06T17:37:13.021Z,10.16
2019-03-06T17:39:39.673Z,10.13
2019-03-06T17:42:06.444Z,10.07
2019-03-06T17:44:33.357Z,10.07
2019-03-06T17:46:59.923Z,10.03
2019-03-06T17:49:26.609Z,10.01
2019-03-06T17:51:53.142Z,10.02
2019-03-06T17:54:19.888Z,10.06
2019-03-06T17:56:46.836Z,10.01
2019-03-06T17:59:13.593Z,9.97
2019-03-06T18:01:40.237Z,9.95
2019-03-06T18:04:13.935Z,9.90
2019-03-06T18:06:40.637Z,9.88
2019-03-06T18:09:08.403Z,9.84
2019-03-06T18:11:35.096Z,9.82
2019-03-06T18:14:04.616Z,9.80
2019-03-06T18:16:31.526Z,9.77
2019-03-06T18:18:58.167Z,9.75
2019-03-06T18:21:25.588Z,9.73
2019-03-06T18:23:52.374Z,9.73
2019-03-06T18:26:18.935Z,9.70
2019-03-06T18:28:45.572Z,9.68
2019-03-06T18:31:12.378Z,9.67
2019-03-06T18:33:39.083Z,9.68
2019-03-06T18:36:06.038Z,9.67
2019-03-06T18:38:32.801Z,9.67
2019-03-06T18:40:59.484Z,9.66
2019-03-06T18:43:26.253Z,9.64
2019-03-06T18:45:52.973Z,9.63
2019-03-06T18:48:19.658Z,9.57
2019-03-06T18:50:46.312Z,9.52
2019-03-06T18:53:13.011Z,9.46
2019-03-06T18:55:40.050Z,9.40
2019-03-06T18:58:06.788Z,9.33
2019-03-06T19:00:33.878Z,9.26
2019-03-06T19:03:00.635Z,9.25
2019-03-06T19:05:27.302Z,9.19
2019-03-06T19:07:56.049Z,9.13
2019-03-06T19:10:22.897Z,9.06
2019-03-06T19:12:49.878Z,8.99
2019-03-06T19:15:17.453Z,8.93
2019-03-06T19:17:44.193Z,8.88
2019-03-06T19:20:10.946Z,8.79
2019-03-06T19:22:37.793Z,8.75
2019-03-06T19:25:04.887Z,8.70
2019-03-06T19:27:31.590Z,8.61
2019-03-06T19:29:58.169Z,8.55
2019-03-06T19:32:24.934Z,8.50
2019-03-06T19:34:51.566Z,8.41
2019-03-06T19:37:18.210Z,8.34
2019-03-06T19:39:44.882Z,8.28
2019-03-06T19:42:11.640Z,8.24
2019-03-06T19:44:38.414Z,8.21
2019-03-06T19:47:05.299Z,8.14
2019-03-06T19:49:33.016Z,8.11
2019-03-06T19:52:07.690Z,8.05
2019-03-06T19:54:36.618Z,8.00
2019-03-06T19:57:03.476Z,7.96
2019-03-06T19:59:30.241Z,7.91
2019-03-06T20:01:57.032Z,7.86
2019-03-06T20:04:23.682Z,7.84
2019-03-06T20:06:50.658Z,7.84
2019-03-06T20:09:25.460Z,7.81
2019-03-06T20:11:52.229Z,7.77
2019-03-06T20:14:18.899Z,7.71
2019-03-06T20:16:47.756Z,7.68
2019-03-06T20:19:14.515Z,7.62
2019-03-06T20:21:41.193Z,7.59
2019-03-06T20:24:08.221Z,7.46
2019-03-06T20:26:34.972Z,7.54
2019-03-06T20:29:01.754Z,7.51
2019-03-06T20:31:28.658Z,7.50
2019-03-06T20:33:55.440Z,7.48
2019-03-06T20:36:22.359Z,7.44
2019-03-06T20:38:51.102Z,7.41
2019-03-06T20:41:17.827Z,7.37
2019-03-06T20:43:44.668Z,7.34
2019-03-06T20:46:11.412Z,7.30
2019-03-06T20:48:38.270Z,7.29
2019-03-06T20:51:04.997Z,7.30
2019-03-06T20:53:32.072Z,7.29
2019-03-06T20:55:58.819Z,7.28
2019-03-06T20:58:25.449Z,7.27
2019-03-06T21:00:52.178Z,7.24
2019-03-06T21:03:19.161Z,7.21
2019-03-06T21:05:45.904Z,7.24
2019-03-06T21:08:12.759Z,7.22
2019-03-06T21:10:39.635Z,7.19
2019-03-06T21:13:07.475Z,7.13
2019-03-06T21:15:34.204Z,7.12
2019-03-06T21:18:01.012Z,7.12
2019-03-06T21:20:28.271Z,7.12
2019-03-06T21:22:55.302Z,7.10
2019-03-06T21:25:22.110Z,7.10
2019-03-06T21:27:50.063Z,7.05
2019-03-06T21:30:22.920Z,7.08
2019-03-06T21:32:50.669Z,7.04
2019-03-06T21:35:18.462Z,7.05
2019-03-06T21:37:44.981Z,7.04
2019-03-06T21:40:11.814Z,7.04
2019-03-06T21:42:38.535Z,7.01
2019-03-06T21:45:05.798Z,7.00
2019-03-06T21:47:32.662Z,6.94
2019-03-06T21:49:59.305Z,6.91
2019-03-06T21:52:25.934Z,6.86
2019-03-06T21:54:52.578Z,6.81
2019-03-06T21:57:19.408Z,6.76
2019-03-06T21:59:46.191Z,6.74
2019-03-06T22:02:14.028Z,6.70
2019-03-06T22:04:41.416Z,6.71
2019-03-06T22:07:09.180Z,6.68
2019-03-06T22:09:36.287Z,6.67
2019-03-06T22:12:03.076Z,6.63
2019-03-06T22:14:29.782Z,6.59
2019-03-06T22:16:56.527Z,6.55
2019-03-06T22:19:23.099Z,6.56
2019-03-06T22:21:50.265Z,6.54
2019-03-06T22:24:16.829Z,6.51
2019-03-06T22:26:43.664Z,6.48
2019-03-06T22:29:12.596Z,6.42
2019-03-06T22:31:39.032Z,6.40
2019-03-06T22:34:05.853Z,6.36
2019-03-06T22:36:32.697Z,6.34
2019-03-06T22:38:59.431Z,6.30
2019-03-06T22:41:26.281Z,6.27
2019-03-06T22:43:52.935Z,6.25
2019-03-06T22:46:19.568Z,6.25
2019-03-06T22:48:46.212Z,6.25
2019-03-06T22:51:12.870Z,6.25
2019-03-06T22:53:39.494Z,6.24
2019-03-06T22:56:06.224Z,6.29
2019-03-06T22:58:33.027Z,6.31
2019-03-06T23:01:10.755Z,6.34
2019-03-06T23:03:37.445Z,6.37
2019-03-06T23:06:04.075Z,6.36
2019-03-06T23:08:30.718Z,6.37
2019-03-06T23:10:57.378Z,6.35
2019-03-06T23:13:24.325Z,6.32
2019-03-06T23:15:50.994Z,6.32
2019-03-06T23:18:17.535Z,6.27
2019-03-06T23:20:44.212Z,6.26
2019-03-06T23:23:10.864Z,6.25
2019-03-06T23:25:37.515Z,6.29
2019-03-06T23:28:04.155Z,6.33
2019-03-06T23:30:31.065Z,6.37
2019-03-06T23:32:57.635Z,6.41
2019-03-06T23:35:24.288Z,6.43
2019-03-06T23:37:50.911Z,6.44
2019-03-06T23:40:17.537Z,6.47
2019-03-06T23:42:44.274Z,6.47
2019-03-06T23:45:11.010Z,6.46
2019-03-06T23:47:37.987Z,6.43
2019-03-06T23:50:04.689Z,6.41
2019-03-06T23:52:35.850Z,6.37
2019-03-06T23:55:02.690Z,6.36
2019-03-06T23:57:29.348Z,6.35
2019-03-06T23:59:55.889Z,6.36
